This is the latest recevied weather packets stored in our database for station/object N5UKZ-WX. If no packets are shown the sender has not sent any weather packets the latest 10 day(s).
| Time | Temp. | Humidity | Pressure | Rain* | Wind** | Luminosity | Snow |
|---|---|---|---|---|---|---|---|
| 1787506360 | 37.78° C | 55% | 1015.6 hPa | 0 mm | - | - | - |
| 1787505460 | 36.67° C | 58% | 1016 hPa | 0 mm | - | - | - |
| 1787504530 | 35.56° C | 61% | 1016 hPa | 0 mm | - | - | - |
| 1787503600 | 35.56° C | 67% | 1016.3 hPa | 0 mm | - | - | - |
| 1787502700 | 34.44° C | 71% | 1016.6 hPa | 0 mm | - | - | - |
| 1787501770 | 33.33° C | 73% | 1016.6 hPa | 0 mm | - | - | - |
| 1787500840 | 32.78° C | 75% | 1017 hPa | 0 mm | - | - | - |
| 1787499910 | 32.78° C | 76% | 1017 hPa | 0 mm | - | - | - |
| 1787499010 | 31.67° C | 78% | 1016.6 hPa | 0 mm | - | - | - |
| 1787498080 | 31.67° C | 80% | 1016.6 hPa | 0 mm | - | - | - |
| 1787497180 | 31.11° C | 83% | 1016.6 hPa | 0 mm | - | - | - |
| 1787496250 | 30° C | 85% | 1016.3 hPa | 0 mm | - | - | - |
| 1787495320 | 29.44° C | 87% | 1016.3 hPa | 0 mm | - | - | - |
| 1787494390 | 29.44° C | 89% | 1016 hPa | 0 mm | - | - | - |
| 1787493460 | 28.89° C | 90% | 1016 hPa | 0 mm | - | - | - |
| 1787492560 | 28.89° C | 91% | 1016 hPa | 0 mm | - | - | - |
| 1787491630 | 28.33° C | 91% | 1016 hPa | 0 mm | - | - | - |
| 1787490700 | 28.33° C | 92% | 1016 hPa | 0 mm | - | - | - |
| 1787489770 | 27.78° C | 93% | 1016 hPa | 0 mm | - | - | - |
| 1787488870 | 27.78° C | 93% | 1016 hPa | 0 mm | - | - | - |
| 1787487940 | 27.78° C | 93% | 1015.6 hPa | 0 mm | - | - | - |
| 1787487010 | 27.22° C | 93% | 1015.3 hPa | 0 mm | - | - | - |
| 1787486110 | 26.67° C | 93% | 1014.9 hPa | 0 mm | - | - | - |
| 1787485180 | 27.22° C | 93% | 1014.6 hPa | 0 mm | - | - | - |
| 1787484250 | 27.22° C | 92% | 1014.6 hPa | 0 mm | - | - | - |
* Rain latest hour (hover to see other rain measurements)
** Current wind speed in m/s (hover to see current wind gust speed)